sensor_id;sensor_type;location;lat;lon;timestamp;temperature;humidity
26099;DHT22;13860;52.370;6.764;2023-04-15T00:01:04;10.40;58.80
26099;DHT22;13860;52.370;6.764;2023-04-15T00:04:08;10.30;58.80
26099;DHT22;13860;52.370;6.764;2023-04-15T00:07:16;10.30;58.90
26099;DHT22;13860;52.370;6.764;2023-04-15T00:10:20;10.30;59.00
26099;DHT22;13860;52.370;6.764;2023-04-15T00:13:26;10.30;59.00
26099;DHT22;13860;52.370;6.764;2023-04-15T00:16:30;10.30;59.10
26099;DHT22;13860;52.370;6.764;2023-04-15T00:19:36;10.20;59.10
26099;DHT22;13860;52.370;6.764;2023-04-15T00:22:43;10.10;59.20
26099;DHT22;13860;52.370;6.764;2023-04-15T00:25:50;10.10;59.30
26099;DHT22;13860;52.370;6.764;2023-04-15T00:28:54;10.10;59.30
26099;DHT22;13860;52.370;6.764;2023-04-15T00:32:00;10.10;59.40
26099;DHT22;13860;52.370;6.764;2023-04-15T00:35:04;10.00;59.50
26099;DHT22;13860;52.370;6.764;2023-04-15T00:38:12;10.00;59.50
26099;DHT22;13860;52.370;6.764;2023-04-15T00:41:16;10.00;59.40
26099;DHT22;13860;52.370;6.764;2023-04-15T00:44:24;9.90;59.50
26099;DHT22;13860;52.370;6.764;2023-04-15T00:47:28;9.90;59.70
26099;DHT22;13860;52.370;6.764;2023-04-15T00:50:35;9.80;59.70
26099;DHT22;13860;52.370;6.764;2023-04-15T00:53:44;9.80;59.90
26099;DHT22;13860;52.370;6.764;2023-04-15T00:56:50;9.80;59.90
26099;DHT22;13860;52.370;6.764;2023-04-15T00:59:54;9.80;60.00
26099;DHT22;13860;52.370;6.764;2023-04-15T01:03:00;9.70;60.00
26099;DHT22;13860;52.370;6.764;2023-04-15T01:06:05;9.70;60.10
26099;DHT22;13860;52.370;6.764;2023-04-15T01:09:13;9.70;60.30
26099;DHT22;13860;52.370;6.764;2023-04-15T01:12:19;9.60;60.30
26099;DHT22;13860;52.370;6.764;2023-04-15T01:15:25;9.60;60.40
26099;DHT22;13860;52.370;6.764;2023-04-15T01:18:29;9.60;60.50
26099;DHT22;13860;52.370;6.764;2023-04-15T01:21:36;9.60;60.40
26099;DHT22;13860;52.370;6.764;2023-04-15T01:24:43;9.60;60.40
26099;DHT22;13860;52.370;6.764;2023-04-15T01:27:55;9.50;60.60
26099;DHT22;13860;52.370;6.764;2023-04-15T01:31:06;9.50;60.70
26099;DHT22;13860;52.370;6.764;2023-04-15T01:34:15;9.50;61.50
26099;DHT22;13860;52.370;6.764;2023-04-15T01:37:37;9.50;60.80
26099;DHT22;13860;52.370;6.764;2023-04-15T01:40:43;9.50;60.90
26099;DHT22;13860;52.370;6.764;2023-04-15T01:43:50;9.40;60.90
26099;DHT22;13860;52.370;6.764;2023-04-15T01:46:58;9.40;61.10
26099;DHT22;13860;52.370;6.764;2023-04-15T01:50:04;9.40;61.20
26099;DHT22;13860;52.370;6.764;2023-04-15T01:53:12;9.40;61.20
26099;DHT22;13860;52.370;6.764;2023-04-15T01:56:17;9.40;61.30
26099;DHT22;13860;52.370;6.764;2023-04-15T01:59:28;9.40;61.30
26099;DHT22;13860;52.370;6.764;2023-04-15T02:02:34;9.30;61.40
26099;DHT22;13860;52.370;6.764;2023-04-15T02:05:42;9.30;61.40
26099;DHT22;13860;52.370;6.764;2023-04-15T02:08:47;9.30;61.50
26099;DHT22;13860;52.370;6.764;2023-04-15T02:11:54;9.30;61.60
26099;DHT22;13860;52.370;6.764;2023-04-15T02:15:02;9.20;61.60
26099;DHT22;13860;52.370;6.764;2023-04-15T02:18:09;9.20;61.70
26099;DHT22;13860;52.370;6.764;2023-04-15T02:21:14;9.20;61.70
26099;DHT22;13860;52.370;6.764;2023-04-15T02:24:22;9.20;61.70
26099;DHT22;13860;52.370;6.764;2023-04-15T02:27:28;9.20;61.80
26099;DHT22;13860;52.370;6.764;2023-04-15T02:30:37;9.10;61.80
26099;DHT22;13860;52.370;6.764;2023-04-15T02:33:42;9.10;62.00
26099;DHT22;13860;52.370;6.764;2023-04-15T02:36:50;9.10;61.90
26099;DHT22;13860;52.370;6.764;2023-04-15T02:39:58;9.10;62.00
26099;DHT22;13860;52.370;6.764;2023-04-15T02:43:06;9.00;62.00
26099;DHT22;13860;52.370;6.764;2023-04-15T02:46:13;9.00;62.20
26099;DHT22;13860;52.370;6.764;2023-04-15T02:49:20;9.00;62.20
26099;DHT22;13860;52.370;6.764;2023-04-15T02:52:25;8.90;62.30
26099;DHT22;13860;52.370;6.764;2023-04-15T02:55:33;8.90;62.30
26099;DHT22;13860;52.370;6.764;2023-04-15T02:58:38;8.80;62.40
26099;DHT22;13860;52.370;6.764;2023-04-15T03:01:47;8.80;62.50
26099;DHT22;13860;52.370;6.764;2023-04-15T03:04:53;8.80;62.50
26099;DHT22;13860;52.370;6.764;2023-04-15T03:08:01;8.80;62.60
26099;DHT22;13860;52.370;6.764;2023-04-15T03:11:06;8.80;62.60
26099;DHT22;13860;52.370;6.764;2023-04-15T03:14:14;8.70;62.60
26099;DHT22;13860;52.370;6.764;2023-04-15T03:17:24;8.70;62.70
26099;DHT22;13860;52.370;6.764;2023-04-15T03:20:32;8.70;62.80
26099;DHT22;13860;52.370;6.764;2023-04-15T03:23:38;8.70;62.80
26099;DHT22;13860;52.370;6.764;2023-04-15T03:26:45;8.70;62.80
26099;DHT22;13860;52.370;6.764;2023-04-15T03:29:52;8.70;62.90
26099;DHT22;13860;52.370;6.764;2023-04-15T03:33:04;8.60;62.90
26099;DHT22;13860;52.370;6.764;2023-04-15T03:36:11;8.60;63.00
26099;DHT22;13860;52.370;6.764;2023-04-15T03:39:18;8.60;63.10
26099;DHT22;13860;52.370;6.764;2023-04-15T03:42:23;8.60;63.10
26099;DHT22;13860;52.370;6.764;2023-04-15T03:45:31;8.60;63.20
26099;DHT22;13860;52.370;6.764;2023-04-15T03:48:38;8.60;63.20
26099;DHT22;13860;52.370;6.764;2023-04-15T03:51:45;8.60;63.30
26099;DHT22;13860;52.370;6.764;2023-04-15T03:54:50;8.50;63.30
26099;DHT22;13860;52.370;6.764;2023-04-15T03:57:57;8.50;63.40
26099;DHT22;13860;52.370;6.764;2023-04-15T04:01:02;8.50;63.40
26099;DHT22;13860;52.370;6.764;2023-04-15T04:04:11;8.50;63.40
26099;DHT22;13860;52.370;6.764;2023-04-15T04:07:17;8.50;64.20
26099;DHT22;13860;52.370;6.764;2023-04-15T04:10:25;8.50;63.60
26099;DHT22;13860;52.370;6.764;2023-04-15T04:13:30;8.50;63.60
26099;DHT22;13860;52.370;6.764;2023-04-15T04:16:37;8.40;63.50
26099;DHT22;13860;52.370;6.764;2023-04-15T04:19:44;8.40;63.60
26099;DHT22;13860;52.370;6.764;2023-04-15T04:22:52;8.40;63.60
26099;DHT22;13860;52.370;6.764;2023-04-15T04:25:57;8.40;63.70
26099;DHT22;13860;52.370;6.764;2023-04-15T04:29:04;8.40;63.70
26099;DHT22;13860;52.370;6.764;2023-04-15T04:32:10;8.40;63.70
26099;DHT22;13860;52.370;6.764;2023-04-15T04:35:19;8.40;63.80
26099;DHT22;13860;52.370;6.764;2023-04-15T04:38:24;8.40;63.90
26099;DHT22;13860;52.370;6.764;2023-04-15T04:41:32;8.40;63.80
26099;DHT22;13860;52.370;6.764;2023-04-15T04:44:37;8.30;63.80
26099;DHT22;13860;52.370;6.764;2023-04-15T04:47:44;8.30;63.90
26099;DHT22;13860;52.370;6.764;2023-04-15T04:50:52;8.30;63.90
26099;DHT22;13860;52.370;6.764;2023-04-15T04:53:59;8.30;64.00
26099;DHT22;13860;52.370;6.764;2023-04-15T04:57:06;8.30;64.10
26099;DHT22;13860;52.370;6.764;2023-04-15T05:00:13;8.30;64.20
26099;DHT22;13860;52.370;6.764;2023-04-15T05:03:19;8.20;64.10
26099;DHT22;13860;52.370;6.764;2023-04-15T05:06:28;8.20;64.20
26099;DHT22;13860;52.370;6.764;2023-04-15T05:09:34;8.20;64.30
26099;DHT22;13860;52.370;6.764;2023-04-15T05:12:42;8.20;64.30
26099;DHT22;13860;52.370;6.764;2023-04-15T05:15:47;8.20;64.40
26099;DHT22;13860;52.370;6.764;2023-04-15T05:18:54;8.20;64.50
26099;DHT22;13860;52.370;6.764;2023-04-15T05:22:01;8.20;64.50
26099;DHT22;13860;52.370;6.764;2023-04-15T05:25:08;8.20;64.60
26099;DHT22;13860;52.370;6.764;2023-04-15T05:28:14;8.20;64.60
26099;DHT22;13860;52.370;6.764;2023-04-15T05:31:21;8.20;64.60
26099;DHT22;13860;52.370;6.764;2023-04-15T05:34:26;8.20;64.70
26099;DHT22;13860;52.370;6.764;2023-04-15T05:37:35;8.20;64.70
26099;DHT22;13860;52.370;6.764;2023-04-15T05:40:41;8.20;64.70
26099;DHT22;13860;52.370;6.764;2023-04-15T05:43:50;8.10;64.80
26099;DHT22;13860;52.370;6.764;2023-04-15T05:46:55;8.20;64.80
26099;DHT22;13860;52.370;6.764;2023-04-15T05:50:03;8.10;64.80
26099;DHT22;13860;52.370;6.764;2023-04-15T05:53:11;8.20;64.90
26099;DHT22;13860;52.370;6.764;2023-04-15T05:56:18;8.20;64.90
26099;DHT22;13860;52.370;6.764;2023-04-15T05:59:24;8.20;64.90
26099;DHT22;13860;52.370;6.764;2023-04-15T06:02:32;8.20;65.00
26099;DHT22;13860;52.370;6.764;2023-04-15T06:05:37;8.20;65.00
26099;DHT22;13860;52.370;6.764;2023-04-15T06:08:47;8.20;65.10
26099;DHT22;13860;52.370;6.764;2023-04-15T06:11:52;8.20;65.10
26099;DHT22;13860;52.370;6.764;2023-04-15T06:15:00;8.20;65.20
26099;DHT22;13860;52.370;6.764;2023-04-15T06:18:05;8.20;65.20
26099;DHT22;13860;52.370;6.764;2023-04-15T06:21:13;8.20;65.30
26099;DHT22;13860;52.370;6.764;2023-04-15T06:24:20;8.30;65.40
26099;DHT22;13860;52.370;6.764;2023-04-15T06:27:27;8.30;65.50
26099;DHT22;13860;52.370;6.764;2023-04-15T06:30:32;8.30;65.50
26099;DHT22;13860;52.370;6.764;2023-04-15T06:33:40;8.40;65.60
26099;DHT22;13860;52.370;6.764;2023-04-15T06:36:46;8.40;65.70
26099;DHT22;13860;52.370;6.764;2023-04-15T06:39:55;8.50;66.40
26099;DHT22;13860;52.370;6.764;2023-04-15T06:43:00;8.50;65.90
26099;DHT22;13860;52.370;6.764;2023-04-15T06:46:08;8.60;65.90
26099;DHT22;13860;52.370;6.764;2023-04-15T06:49:14;8.60;65.90
26099;DHT22;13860;52.370;6.764;2023-04-15T06:52:21;8.70;66.00
26099;DHT22;13860;52.370;6.764;2023-04-15T06:55:28;8.80;66.10
26099;DHT22;13860;52.370;6.764;2023-04-15T06:58:36;8.80;66.20
26099;DHT22;13860;52.370;6.764;2023-04-15T07:01:41;8.90;66.20
26099;DHT22;13860;52.370;6.764;2023-04-15T07:04:48;9.00;66.20
26099;DHT22;13860;52.370;6.764;2023-04-15T07:07:53;9.10;66.40
26099;DHT22;13860;52.370;6.764;2023-04-15T07:11:03;9.10;66.30
26099;DHT22;13860;52.370;6.764;2023-04-15T07:14:08;9.20;66.50
26099;DHT22;13860;52.370;6.764;2023-04-15T07:17:15;9.20;66.50
26099;DHT22;13860;52.370;6.764;2023-04-15T07:20:20;9.30;66.50
26099;DHT22;13860;52.370;6.764;2023-04-15T07:23:28;9.30;66.60
26099;DHT22;13860;52.370;6.764;2023-04-15T07:26:35;9.40;66.70
26099;DHT22;13860;52.370;6.764;2023-04-15T07:29:42;9.50;66.80
26099;DHT22;13860;52.370;6.764;2023-04-15T07:32:47;9.50;66.80
26099;DHT22;13860;52.370;6.764;2023-04-15T07:35:54;9.60;66.80
26099;DHT22;13860;52.370;6.764;2023-04-15T07:39:00;9.60;66.80
26099;DHT22;13860;52.370;6.764;2023-04-15T07:42:10;9.70;66.90
26099;DHT22;13860;52.370;6.764;2023-04-15T07:45:15;9.70;66.90
26099;DHT22;13860;52.370;6.764;2023-04-15T07:48:23;9.70;66.90
26099;DHT22;13860;52.370;6.764;2023-04-15T07:51:28;9.80;67.00
26099;DHT22;13860;52.370;6.764;2023-04-15T07:54:39;9.80;67.00
26099;DHT22;13860;52.370;6.764;2023-04-15T07:57:47;9.80;67.00
26099;DHT22;13860;52.370;6.764;2023-04-15T08:00:54;9.80;67.10
26099;DHT22;13860;52.370;6.764;2023-04-15T08:03:59;9.90;67.10
26099;DHT22;13860;52.370;6.764;2023-04-15T08:07:07;9.90;67.10
26099;DHT22;13860;52.370;6.764;2023-04-15T08:10:13;10.00;67.10
26099;DHT22;13860;52.370;6.764;2023-04-15T08:13:22;10.00;67.20
26099;DHT22;13860;52.370;6.764;2023-04-15T08:16:27;10.10;67.20
26099;DHT22;13860;52.370;6.764;2023-04-15T08:19:34;10.10;67.20
26099;DHT22;13860;52.370;6.764;2023-04-15T08:22:39;10.20;67.30
26099;DHT22;13860;52.370;6.764;2023-04-15T08:25:46;10.20;67.20
26099;DHT22;13860;52.370;6.764;2023-04-15T08:28:54;10.30;67.30
26099;DHT22;13860;52.370;6.764;2023-04-15T08:32:02;10.40;67.30
26099;DHT22;13860;52.370;6.764;2023-04-15T08:35:08;10.40;67.30
26099;DHT22;13860;52.370;6.764;2023-04-15T08:38:15;10.50;67.30
26099;DHT22;13860;52.370;6.764;2023-04-15T08:41:21;10.50;67.30
26099;DHT22;13860;52.370;6.764;2023-04-15T08:44:33;10.60;67.30
26099;DHT22;13860;52.370;6.764;2023-04-15T08:47:42;10.60;67.30
26099;DHT22;13860;52.370;6.764;2023-04-15T08:50:50;10.70;67.30
26099;DHT22;13860;52.370;6.764;2023-04-15T08:53:56;10.80;67.30
26099;DHT22;13860;52.370;6.764;2023-04-15T08:57:03;10.80;67.30
26099;DHT22;13860;52.370;6.764;2023-04-15T09:00:12;10.90;67.30
26099;DHT22;13860;52.370;6.764;2023-04-15T09:03:20;11.00;67.30
26099;DHT22;13860;52.370;6.764;2023-04-15T09:06:26;11.00;67.20
26099;DHT22;13860;52.370;6.764;2023-04-15T09:09:33;11.10;67.30
26099;DHT22;13860;52.370;6.764;2023-04-15T09:12:42;11.10;67.20
26099;DHT22;13860;52.370;6.764;2023-04-15T09:15:51;11.20;67.20
26099;DHT22;13860;52.370;6.764;2023-04-15T09:18:57;11.30;67.20
26099;DHT22;13860;52.370;6.764;2023-04-15T09:22:04;11.30;67.20
26099;DHT22;13860;52.370;6.764;2023-04-15T09:25:26;11.40;67.20
26099;DHT22;13860;52.370;6.764;2023-04-15T09:28:40;11.40;67.30
26099;DHT22;13860;52.370;6.764;2023-04-15T09:31:48;11.40;67.10
26099;DHT22;13860;52.370;6.764;2023-04-15T09:34:55;11.50;67.20
26099;DHT22;13860;52.370;6.764;2023-04-15T09:38:04;11.50;67.10
26099;DHT22;13860;52.370;6.764;2023-04-15T09:41:16;11.50;67.20
26099;DHT22;13860;52.370;6.764;2023-04-15T09:44:22;11.50;67.10
26099;DHT22;13860;52.370;6.764;2023-04-15T09:47:32;11.60;67.10
26099;DHT22;13860;52.370;6.764;2023-04-15T09:50:41;11.60;67.20
26099;DHT22;13860;52.370;6.764;2023-04-15T09:53:54;11.60;67.10
26099;DHT22;13860;52.370;6.764;2023-04-15T09:57:04;11.60;67.10
26099;DHT22;13860;52.370;6.764;2023-04-15T10:00:13;11.60;67.10
26099;DHT22;13860;52.370;6.764;2023-04-15T10:03:21;11.70;67.10
26099;DHT22;13860;52.370;6.764;2023-04-15T10:06:30;11.70;67.10
26099;DHT22;13860;52.370;6.764;2023-04-15T10:09:35;11.70;67.00
26099;DHT22;13860;52.370;6.764;2023-04-15T10:12:44;11.70;67.00
26099;DHT22;13860;52.370;6.764;2023-04-15T10:15:53;11.70;67.00
26099;DHT22;13860;52.370;6.764;2023-04-15T10:19:04;11.70;67.10
26099;DHT22;13860;52.370;6.764;2023-04-15T10:22:11;11.70;67.10
26099;DHT22;13860;52.370;6.764;2023-04-15T10:25:20;11.70;67.00
26099;DHT22;13860;52.370;6.764;2023-04-15T10:28:26;11.70;67.00
26099;DHT22;13860;52.370;6.764;2023-04-15T10:31:34;11.80;67.00
26099;DHT22;13860;52.370;6.764;2023-04-15T10:34:43;11.80;67.00
26099;DHT22;13860;52.370;6.764;2023-04-15T10:37:51;11.80;67.00
26099;DHT22;13860;52.370;6.764;2023-04-15T10:41:11;11.80;67.00
26099;DHT22;13860;52.370;6.764;2023-04-15T10:44:19;11.90;67.10
26099;DHT22;13860;52.370;6.764;2023-04-15T10:47:24;11.90;67.00
26099;DHT22;13860;52.370;6.764;2023-04-15T10:50:36;11.90;67.00
26099;DHT22;13860;52.370;6.764;2023-04-15T10:53:41;11.90;67.00
26099;DHT22;13860;52.370;6.764;2023-04-15T10:56:50;12.00;66.90
26099;DHT22;13860;52.370;6.764;2023-04-15T11:00:01;12.00;66.90
26099;DHT22;13860;52.370;6.764;2023-04-15T11:03:11;12.00;66.90
26099;DHT22;13860;52.370;6.764;2023-04-15T11:06:19;12.00;66.90
26099;DHT22;13860;52.370;6.764;2023-04-15T11:09:31;12.00;66.90
26099;DHT22;13860;52.370;6.764;2023-04-15T11:12:36;12.00;66.90
26099;DHT22;13860;52.370;6.764;2023-04-15T11:15:44;12.10;66.90
26099;DHT22;13860;52.370;6.764;2023-04-15T11:18:53;12.10;66.80
26099;DHT22;13860;52.370;6.764;2023-04-15T11:22:07;12.10;66.90
26099;DHT22;13860;52.370;6.764;2023-04-15T11:25:21;12.10;66.90
26099;DHT22;13860;52.370;6.764;2023-04-15T11:28:29;12.10;66.90
26099;DHT22;13860;52.370;6.764;2023-04-15T11:31:34;12.10;66.80
26099;DHT22;13860;52.370;6.764;2023-04-15T11:34:44;12.10;66.80
26099;DHT22;13860;52.370;6.764;2023-04-15T11:37:52;12.10;66.80
26099;DHT22;13860;52.370;6.764;2023-04-15T11:41:00;12.10;66.90
26099;DHT22;13860;52.370;6.764;2023-04-15T11:44:15;12.20;66.90
26099;DHT22;13860;52.370;6.764;2023-04-15T11:47:22;12.20;66.90
26099;DHT22;13860;52.370;6.764;2023-04-15T11:50:27;12.30;66.90
26099;DHT22;13860;52.370;6.764;2023-04-15T11:53:40;12.30;66.90
26099;DHT22;13860;52.370;6.764;2023-04-15T11:56:49;12.30;66.90
26099;DHT22;13860;52.370;6.764;2023-04-15T11:59:57;12.30;66.90
26099;DHT22;13860;52.370;6.764;2023-04-15T12:03:14;12.30;66.80
26099;DHT22;13860;52.370;6.764;2023-04-15T12:06:23;12.30;66.70
26099;DHT22;13860;52.370;6.764;2023-04-15T12:09:30;12.30;66.70
26099;DHT22;13860;52.370;6.764;2023-04-15T12:12:42;12.30;66.80
26099;DHT22;13860;52.370;6.764;2023-04-15T12:15:46;12.30;66.90
26099;DHT22;13860;52.370;6.764;2023-04-15T12:18:55;12.30;66.80
26099;DHT22;13860;52.370;6.764;2023-04-15T12:22:02;12.30;66.80
26099;DHT22;13860;52.370;6.764;2023-04-15T12:25:10;12.20;66.80
26099;DHT22;13860;52.370;6.764;2023-04-15T12:28:14;12.20;66.90
26099;DHT22;13860;52.370;6.764;2023-04-15T12:31:22;12.20;66.80
26099;DHT22;13860;52.370;6.764;2023-04-15T12:34:27;12.20;66.80
26099;DHT22;13860;52.370;6.764;2023-04-15T12:37:34;12.20;67.00
26099;DHT22;13860;52.370;6.764;2023-04-15T12:40:39;12.20;67.00
26099;DHT22;13860;52.370;6.764;2023-04-15T12:43:47;12.20;67.00
26099;DHT22;13860;52.370;6.764;2023-04-15T12:46:52;12.20;67.00
26099;DHT22;13860;52.370;6.764;2023-04-15T12:49:58;12.20;67.00
26099;DHT22;13860;52.370;6.764;2023-04-15T12:53:04;12.20;67.00
26099;DHT22;13860;52.370;6.764;2023-04-15T12:56:13;12.20;67.00
26099;DHT22;13860;52.370;6.764;2023-04-15T12:59:18;12.20;67.10
26099;DHT22;13860;52.370;6.764;2023-04-15T13:02:24;12.20;67.00
26099;DHT22;13860;52.370;6.764;2023-04-15T13:05:29;12.20;67.00
26099;DHT22;13860;52.370;6.764;2023-04-15T13:08:36;12.20;67.00
26099;DHT22;13860;52.370;6.764;2023-04-15T13:11:51;12.20;67.00
26099;DHT22;13860;52.370;6.764;2023-04-15T13:14:57;12.20;67.00
26099;DHT22;13860;52.370;6.764;2023-04-15T13:18:01;12.20;67.10
26099;DHT22;13860;52.370;6.764;2023-04-15T13:21:07;12.20;67.00
26099;DHT22;13860;52.370;6.764;2023-04-15T13:24:11;12.20;67.00
26099;DHT22;13860;52.370;6.764;2023-04-15T13:27:19;12.20;67.10
26099;DHT22;13860;52.370;6.764;2023-04-15T13:30:23;12.20;67.10
26099;DHT22;13860;52.370;6.764;2023-04-15T13:33:30;12.20;67.20
26099;DHT22;13860;52.370;6.764;2023-04-15T13:36:34;12.20;67.20
26099;DHT22;13860;52.370;6.764;2023-04-15T13:39:40;12.20;67.30
26099;DHT22;13860;52.370;6.764;2023-04-15T13:42:45;12.10;67.20
26099;DHT22;13860;52.370;6.764;2023-04-15T13:45:51;12.10;67.20
26099;DHT22;13860;52.370;6.764;2023-04-15T13:48:56;12.10;67.20
26099;DHT22;13860;52.370;6.764;2023-04-15T13:52:01;12.10;67.30
26099;DHT22;13860;52.370;6.764;2023-04-15T13:55:07;12.10;67.40
26099;DHT22;13860;52.370;6.764;2023-04-15T13:58:26;12.10;67.40
26099;DHT22;13860;52.370;6.764;2023-04-15T14:01:33;12.10;67.50
26099;DHT22;13860;52.370;6.764;2023-04-15T14:04:39;12.10;67.50
26099;DHT22;13860;52.370;6.764;2023-04-15T14:07:43;12.10;67.50
26099;DHT22;13860;52.370;6.764;2023-04-15T14:10:49;12.10;67.50
26099;DHT22;13860;52.370;6.764;2023-04-15T14:13:55;12.10;67.50
26099;DHT22;13860;52.370;6.764;2023-04-15T14:17:01;12.10;67.50
26099;DHT22;13860;52.370;6.764;2023-04-15T14:20:07;12.10;67.60
26099;DHT22;13860;52.370;6.764;2023-04-15T14:23:13;12.00;67.70
26099;DHT22;13860;52.370;6.764;2023-04-15T14:26:17;12.00;67.70
26099;DHT22;13860;52.370;6.764;2023-04-15T14:29:25;12.00;67.70
26099;DHT22;13860;52.370;6.764;2023-04-15T14:32:29;12.00;67.70
26099;DHT22;13860;52.370;6.764;2023-04-15T14:35:35;12.00;67.80
26099;DHT22;13860;52.370;6.764;2023-04-15T14:38:39;11.90;67.90
26099;DHT22;13860;52.370;6.764;2023-04-15T14:41:45;11.90;68.00
26099;DHT22;13860;52.370;6.764;2023-04-15T14:44:51;11.90;68.10
26099;DHT22;13860;52.370;6.764;2023-04-15T14:47:57;11.90;67.90
26099;DHT22;13860;52.370;6.764;2023-04-15T14:51:02;11.90;67.80
26099;DHT22;13860;52.370;6.764;2023-04-15T14:54:08;11.90;67.80
26099;DHT22;13860;52.370;6.764;2023-04-15T14:57:11;11.90;67.70
26099;DHT22;13860;52.370;6.764;2023-04-15T15:00:19;11.90;67.70
26099;DHT22;13860;52.370;6.764;2023-04-15T15:03:23;11.90;67.60
26099;DHT22;13860;52.370;6.764;2023-04-15T15:06:29;11.80;67.60
26099;DHT22;13860;52.370;6.764;2023-04-15T15:09:33;11.80;67.50
26099;DHT22;13860;52.370;6.764;2023-04-15T15:12:39;11.80;67.50
26099;DHT22;13860;52.370;6.764;2023-04-15T15:15:44;11.80;67.50
26099;DHT22;13860;52.370;6.764;2023-04-15T15:18:51;11.70;67.50
26099;DHT22;13860;52.370;6.764;2023-04-15T15:21:55;11.70;67.50
26099;DHT22;13860;52.370;6.764;2023-04-15T15:25:01;11.70;67.50
26099;DHT22;13860;52.370;6.764;2023-04-15T15:28:05;11.70;67.60
26099;DHT22;13860;52.370;6.764;2023-04-15T15:31:13;11.60;67.60
26099;DHT22;13860;52.370;6.764;2023-04-15T15:34:16;11.60;67.60
26099;DHT22;13860;52.370;6.764;2023-04-15T15:37:22;11.60;67.60
26099;DHT22;13860;52.370;6.764;2023-04-15T15:40:26;11.50;67.50
26099;DHT22;13860;52.370;6.764;2023-04-15T15:43:32;11.50;67.60
26099;DHT22;13860;52.370;6.764;2023-04-15T15:46:37;11.50;67.60
26099;DHT22;13860;52.370;6.764;2023-04-15T15:49:46;11.50;67.60
26099;DHT22;13860;52.370;6.764;2023-04-15T15:52:49;11.50;67.60
26099;DHT22;13860;52.370;6.764;2023-04-15T15:55:55;11.40;67.50
26099;DHT22;13860;52.370;6.764;2023-04-15T15:58:59;11.40;67.50
26099;DHT22;13860;52.370;6.764;2023-04-15T16:02:07;11.40;67.50
26099;DHT22;13860;52.370;6.764;2023-04-15T16:05:11;11.40;67.60
26099;DHT22;13860;52.370;6.764;2023-04-15T16:08:17;11.40;67.60
26099;DHT22;13860;52.370;6.764;2023-04-15T16:11:21;11.30;67.50
26099;DHT22;13860;52.370;6.764;2023-04-15T16:14:27;11.30;67.60
26099;DHT22;13860;52.370;6.764;2023-04-15T16:17:32;11.30;67.70
26099;DHT22;13860;52.370;6.764;2023-04-15T16:20:38;11.30;67.60
26099;DHT22;13860;52.370;6.764;2023-04-15T16:23:42;11.20;67.60
26099;DHT22;13860;52.370;6.764;2023-04-15T16:26:48;11.20;67.70
26099;DHT22;13860;52.370;6.764;2023-04-15T16:29:51;11.20;67.70
26099;DHT22;13860;52.370;6.764;2023-04-15T16:33:00;11.10;67.70
26099;DHT22;13860;52.370;6.764;2023-04-15T16:36:03;11.10;67.70
26099;DHT22;13860;52.370;6.764;2023-04-15T16:39:09;11.10;67.70
26099;DHT22;13860;52.370;6.764;2023-04-15T16:42:13;11.10;67.80
26099;DHT22;13860;52.370;6.764;2023-04-15T16:45:19;11.00;67.70
26099;DHT22;13860;52.370;6.764;2023-04-15T16:48:25;11.00;67.70
26099;DHT22;13860;52.370;6.764;2023-04-15T16:51:31;11.00;67.80
26099;DHT22;13860;52.370;6.764;2023-04-15T16:54:35;11.00;67.70
26099;DHT22;13860;52.370;6.764;2023-04-15T16:57:43;11.00;67.80
26099;DHT22;13860;52.370;6.764;2023-04-15T17:01:03;11.00;67.80
26099;DHT22;13860;52.370;6.764;2023-04-15T17:04:11;10.90;67.80
26099;DHT22;13860;52.370;6.764;2023-04-15T17:07:15;10.90;67.80
26099;DHT22;13860;52.370;6.764;2023-04-15T17:10:21;10.90;67.90
26099;DHT22;13860;52.370;6.764;2023-04-15T17:13:25;10.90;67.90
26099;DHT22;13860;52.370;6.764;2023-04-15T17:16:30;10.90;67.90
26099;DHT22;13860;52.370;6.764;2023-04-15T17:19:36;10.80;67.90
26099;DHT22;13860;52.370;6.764;2023-04-15T17:22:45;10.90;68.00
26099;DHT22;13860;52.370;6.764;2023-04-15T17:25:50;10.80;67.90
26099;DHT22;13860;52.370;6.764;2023-04-15T17:28:56;10.80;68.00
26099;DHT22;13860;52.370;6.764;2023-04-15T17:32:08;10.70;68.00
26099;DHT22;13860;52.370;6.764;2023-04-15T17:35:35;10.70;68.00
26099;DHT22;13860;52.370;6.764;2023-04-15T17:38:59;10.70;68.10
26099;DHT22;13860;52.370;6.764;2023-04-15T17:42:25;10.70;68.10
26099;DHT22;13860;52.370;6.764;2023-04-15T17:45:49;10.70;68.10
26099;DHT22;13860;52.370;6.764;2023-04-15T17:49:15;10.70;68.10
26099;DHT22;13860;52.370;6.764;2023-04-15T17:52:40;10.70;68.10
26099;DHT22;13860;52.370;6.764;2023-04-15T17:56:06;10.70;68.10
26099;DHT22;13860;52.370;6.764;2023-04-15T17:59:30;10.70;68.20
26099;DHT22;13860;52.370;6.764;2023-04-15T18:02:56;10.60;68.10
26099;DHT22;13860;52.370;6.764;2023-04-15T18:06:19;10.60;68.20
26099;DHT22;13860;52.370;6.764;2023-04-15T18:09:47;10.60;68.20
26099;DHT22;13860;52.370;6.764;2023-04-15T18:13:11;10.60;68.20
26099;DHT22;13860;52.370;6.764;2023-04-15T18:16:37;10.60;68.20
26099;DHT22;13860;52.370;6.764;2023-04-15T18:20:03;10.60;68.30
26099;DHT22;13860;52.370;6.764;2023-04-15T18:23:09;10.60;68.30
26099;DHT22;13860;52.370;6.764;2023-04-15T18:26:14;10.50;68.30
26099;DHT22;13860;52.370;6.764;2023-04-15T18:29:20;10.60;68.30
26099;DHT22;13860;52.370;6.764;2023-04-15T18:32:24;10.60;68.40
26099;DHT22;13860;52.370;6.764;2023-04-15T18:35:34;10.60;68.30
26099;DHT22;13860;52.370;6.764;2023-04-15T18:38:38;10.50;68.30
26099;DHT22;13860;52.370;6.764;2023-04-15T18:41:46;10.60;68.30
26099;DHT22;13860;52.370;6.764;2023-04-15T18:44:50;10.50;68.40
26099;DHT22;13860;52.370;6.764;2023-04-15T18:47:56;10.50;68.40
26099;DHT22;13860;52.370;6.764;2023-04-15T18:51:00;10.50;68.40
26099;DHT22;13860;52.370;6.764;2023-04-15T18:54:06;10.50;68.40
26099;DHT22;13860;52.370;6.764;2023-04-15T18:57:12;10.40;68.50
26099;DHT22;13860;52.370;6.764;2023-04-15T19:00:34;10.40;68.50
26099;DHT22;13860;52.370;6.764;2023-04-15T19:03:42;10.40;68.50
26099;DHT22;13860;52.370;6.764;2023-04-15T19:06:48;10.40;68.80
26099;DHT22;13860;52.370;6.764;2023-04-15T19:09:52;10.40;68.60
26099;DHT22;13860;52.370;6.764;2023-04-15T19:12:59;10.40;68.70
26099;DHT22;13860;52.370;6.764;2023-04-15T19:16:05;10.40;68.70
26099;DHT22;13860;52.370;6.764;2023-04-15T19:19:13;10.30;68.70
26099;DHT22;13860;52.370;6.764;2023-04-15T19:22:17;10.40;68.80
26099;DHT22;13860;52.370;6.764;2023-04-15T19:25:23;10.40;68.80
26099;DHT22;13860;52.370;6.764;2023-04-15T19:28:28;10.30;68.70
26099;DHT22;13860;52.370;6.764;2023-04-15T19:31:34;10.40;68.80
26099;DHT22;13860;52.370;6.764;2023-04-15T19:34:38;10.40;68.80
26099;DHT22;13860;52.370;6.764;2023-04-15T19:37:45;10.40;68.80
26099;DHT22;13860;52.370;6.764;2023-04-15T19:40:49;10.40;68.80
26099;DHT22;13860;52.370;6.764;2023-04-15T19:43:56;10.40;68.80
26099;DHT22;13860;52.370;6.764;2023-04-15T19:47:00;10.30;68.80
26099;DHT22;13860;52.370;6.764;2023-04-15T19:50:06;10.30;68.90
26099;DHT22;13860;52.370;6.764;2023-04-15T19:53:11;10.30;69.00